Potter, Wisconsin
Current Conditions -  °F | °C
As of 5:56 PM on Monday 20 Oct 2014 (Local Time) from KMTW Reporting Station
Light Rain Light Rain  
Wind Chill: 50°   Ceiling: 4900
Heat Index: 50°   Visibility: 10mi
Dew Point: 45°   Wind: 7mph
Humidity: 83%   Direction: 330°NNW
Pressure: 29.95"   Gusts: NA
Location:  44.12°N, 88.1°W
Report Text: KMTW 202256Z AUTO 33006KT 10SM -RA BKN049 OVC060 10/07 A2995 RMK AO2 RAB15 SLP168 P0000 T01000072
Loading
Personal Weather Stations






























Interactive Weather Map
Tropical Storm Tracking
New forecast layout! Learn more

10-Day Weather Forecast

Advertisements
Track Severe Weather on mobile